sensor_id;sensor_type;location;lat;lon;timestamp;pressure;altitude;pressure_sealevel;temperature;humidity
39891;BME280;25564;53.312;9.790;2022-12-29T00:02:07;99407.81;;;8.51;100.00
39891;BME280;25564;53.312;9.790;2022-12-29T00:04:39;99394.03;;;8.40;100.00
39891;BME280;25564;53.312;9.790;2022-12-29T00:07:10;99416.47;;;8.57;100.00
39891;BME280;25564;53.312;9.790;2022-12-29T00:09:42;99417.19;;;8.62;100.00
39891;BME280;25564;53.312;9.790;2022-12-29T00:12:13;99423.28;;;8.64;100.00
39891;BME280;25564;53.312;9.790;2022-12-29T00:14:44;99405.69;;;8.63;100.00
39891;BME280;25564;53.312;9.790;2022-12-29T00:17:34;99406.50;;;8.65;100.00
39891;BME280;25564;53.312;9.790;2022-12-29T00:20:06;99403.81;;;8.66;100.00
39891;BME280;25564;53.312;9.790;2022-12-29T00:22:56;99400.41;;;8.63;100.00
39891;BME280;25564;53.312;9.790;2022-12-29T00:25:45;99402.78;;;8.72;100.00
39891;BME280;25564;53.312;9.790;2022-12-29T00:28:35;99410.59;;;8.75;100.00
39891;BME280;25564;53.312;9.790;2022-12-29T00:31:25;99404.34;;;8.77;100.00
39891;BME280;25564;53.312;9.790;2022-12-29T00:34:16;99393.72;;;8.79;100.00
39891;BME280;25564;53.312;9.790;2022-12-29T00:37:05;99391.00;;;8.82;100.00
39891;BME280;25564;53.312;9.790;2022-12-29T00:39:37;99380.31;;;8.85;100.00
39891;BME280;25564;53.312;9.790;2022-12-29T00:42:27;99378.47;;;8.87;100.00
39891;BME280;25564;53.312;9.790;2022-12-29T00:45:17;99371.41;;;8.88;100.00
39891;BME280;25564;53.312;9.790;2022-12-29T00:47:48;99376.50;;;8.94;100.00
39891;BME280;25564;53.312;9.790;2022-12-29T00:50:19;99371.16;;;8.95;100.00
39891;BME280;25564;53.312;9.790;2022-12-29T00:52:51;99360.53;;;8.97;100.00
39891;BME280;25564;53.312;9.790;2022-12-29T00:55:22;99353.56;;;8.94;100.00
39891;BME280;25564;53.312;9.790;2022-12-29T00:57:54;99354.56;;;8.90;100.00
39891;BME280;25564;53.312;9.790;2022-12-29T01:00:25;99318.44;;;8.63;100.00
39891;BME280;25564;53.312;9.790;2022-12-29T01:02:56;99337.56;;;8.71;100.00
39891;BME280;25564;53.312;9.790;2022-12-29T01:05:28;99347.91;;;8.78;100.00
39891;BME280;25564;53.312;9.790;2022-12-29T01:07:59;99346.13;;;8.79;100.00
39891;BME280;25564;53.312;9.790;2022-12-29T01:10:31;99351.25;;;8.83;100.00
39891;BME280;25564;53.312;9.790;2022-12-29T01:13:02;99329.53;;;8.74;100.00
39891;BME280;25564;53.312;9.790;2022-12-29T01:15:33;99309.28;;;8.73;100.00
39891;BME280;25564;53.312;9.790;2022-12-29T01:18:05;99353.66;;;8.91;100.00
39891;BME280;25564;53.312;9.790;2022-12-29T01:20:36;99334.44;;;8.86;100.00
39891;BME280;25564;53.312;9.790;2022-12-29T01:23:07;99343.63;;;9.01;100.00
39891;BME280;25564;53.312;9.790;2022-12-29T01:25:38;99316.63;;;8.91;100.00
39891;BME280;25564;53.312;9.790;2022-12-29T01:28:10;99326.69;;;9.06;100.00
39891;BME280;25564;53.312;9.790;2022-12-29T01:30:41;99327.47;;;9.10;100.00
39891;BME280;25564;53.312;9.790;2022-12-29T01:33:12;99328.22;;;9.13;100.00
39891;BME280;25564;53.312;9.790;2022-12-29T01:35:44;99326.38;;;9.15;100.00
39891;BME280;25564;53.312;9.790;2022-12-29T01:38:15;99321.91;;;9.17;100.00
39891;BME280;25564;53.312;9.790;2022-12-29T01:40:48;99320.88;;;9.22;100.00
39891;BME280;25564;53.312;9.790;2022-12-29T01:43:19;99308.66;;;9.17;100.00
39891;BME280;25564;53.312;9.790;2022-12-29T01:45:51;99295.44;;;9.17;100.00
39891;BME280;25564;53.312;9.790;2022-12-29T01:48:25;99305.00;;;9.22;100.00
39891;BME280;25564;53.312;9.790;2022-12-29T01:50:56;99304.69;;;9.31;100.00
39891;BME280;25564;53.312;9.790;2022-12-29T01:53:29;99311.59;;;9.35;100.00
39891;BME280;25564;53.312;9.790;2022-12-29T01:56:07;99303.66;;;9.35;100.00
39891;BME280;25564;53.312;9.790;2022-12-29T01:58:44;99300.09;;;9.36;100.00
39891;BME280;25564;53.312;9.790;2022-12-29T02:01:18;99311.47;;;9.38;100.00
39891;BME280;25564;53.312;9.790;2022-12-29T02:03:51;99310.69;;;9.36;100.00
39891;BME280;25564;53.312;9.790;2022-12-29T02:06:29;99306.16;;;9.38;100.00
39891;BME280;25564;53.312;9.790;2022-12-29T02:09:02;99262.22;;;9.09;100.00
39891;BME280;25564;53.312;9.790;2022-12-29T02:11:34;99300.88;;;9.38;100.00
39891;BME280;25564;53.312;9.790;2022-12-29T02:14:12;99282.28;;;9.39;100.00
39891;BME280;25564;53.312;9.790;2022-12-29T02:16:51;99294.66;;;9.39;100.00
39891;BME280;25564;53.312;9.790;2022-12-29T02:25:31;99280.00;;;9.30;100.00
39891;BME280;25564;53.312;9.790;2022-12-29T02:28:18;99272.81;;;9.34;100.00
39891;BME280;25564;53.312;9.790;2022-12-29T02:31:12;99267.50;;;9.34;100.00
39891;BME280;25564;53.312;9.790;2022-12-29T02:34:03;99262.22;;;9.34;100.00
39891;BME280;25564;53.312;9.790;2022-12-29T02:37:00;99251.78;;;9.29;100.00
39891;BME280;25564;53.312;9.790;2022-12-29T02:39:50;99251.09;;;9.24;100.00
39891;BME280;25564;53.312;9.790;2022-12-29T02:42:36;99254.28;;;9.34;100.00
39891;BME280;25564;53.312;9.790;2022-12-29T02:48:20;99223.97;;;9.17;100.00
39891;BME280;25564;53.312;9.790;2022-12-29T02:54:18;99251.44;;;9.38;100.00
39891;BME280;25564;53.312;9.790;2022-12-29T03:00:00;99247.16;;;9.36;100.00
39891;BME280;25564;53.312;9.790;2022-12-29T03:02:52;99244.25;;;9.42;100.00
39891;BME280;25564;53.312;9.790;2022-12-29T03:05:39;99245.97;;;9.43;100.00
39891;BME280;25564;53.312;9.790;2022-12-29T03:08:19;99238.03;;;9.43;100.00
39891;BME280;25564;53.312;9.790;2022-12-29T03:11:04;99240.69;;;9.43;100.00
39891;BME280;25564;53.312;9.790;2022-12-29T03:13:45;99232.78;;;9.41;100.00
39891;BME280;25564;53.312;9.790;2022-12-29T03:16:59;99211.97;;;9.32;100.00
39891;BME280;25564;53.312;9.790;2022-12-29T03:23:26;99202.47;;;9.27;100.00
39891;BME280;25564;53.312;9.790;2022-12-29T03:26:01;99219.59;;;9.40;100.00
39891;BME280;25564;53.312;9.790;2022-12-29T03:28:38;99231.06;;;9.40;100.00
39891;BME280;25564;53.312;9.790;2022-12-29T03:31:10;99223.88;;;9.44;100.00
39891;BME280;25564;53.312;9.790;2022-12-29T03:33:43;99229.06;;;9.47;100.00
39891;BME280;25564;53.312;9.790;2022-12-29T03:36:26;99216.72;;;9.46;100.00
39891;BME280;25564;53.312;9.790;2022-12-29T03:39:06;99196.59;;;9.42;100.00
39891;BME280;25564;53.312;9.790;2022-12-29T03:41:41;99191.13;;;9.46;100.00
39891;BME280;25564;53.312;9.790;2022-12-29T03:44:14;99199.59;;;9.56;100.00
39891;BME280;25564;53.312;9.790;2022-12-29T03:46:45;99203.94;;;9.57;100.00
39891;BME280;25564;53.312;9.790;2022-12-29T03:49:16;99199.47;;;9.59;100.00
39891;BME280;25564;53.312;9.790;2022-12-29T03:51:48;99192.31;;;9.61;100.00
39891;BME280;25564;53.312;9.790;2022-12-29T03:54:23;99204.53;;;9.65;100.00
39891;BME280;25564;53.312;9.790;2022-12-29T03:56:54;99206.13;;;9.69;100.00
39891;BME280;25564;53.312;9.790;2022-12-29T03:59:25;99194.81;;;9.66;100.00
39891;BME280;25564;53.312;9.790;2022-12-29T04:01:56;99190.38;;;9.66;100.00
39891;BME280;25564;53.312;9.790;2022-12-29T04:04:28;99181.78;;;9.60;100.00
39891;BME280;25564;53.312;9.790;2022-12-29T04:06:59;99197.28;;;9.70;100.00
39891;BME280;25564;53.312;9.790;2022-12-29T04:09:31;99192.66;;;9.75;100.00
39891;BME280;25564;53.312;9.790;2022-12-29T04:12:02;99182.88;;;9.77;100.00
39891;BME280;25564;53.312;9.790;2022-12-29T04:14:34;99190.75;;;9.79;100.00
39891;BME280;25564;53.312;9.790;2022-12-29T04:17:05;99188.84;;;9.82;100.00
39891;BME280;25564;53.312;9.790;2022-12-29T04:19:36;99179.28;;;9.78;100.00
39891;BME280;25564;53.312;9.790;2022-12-29T04:22:08;99179.28;;;9.78;100.00
39891;BME280;25564;53.312;9.790;2022-12-29T04:24:39;99164.16;;;9.82;100.00
39891;BME280;25564;53.312;9.790;2022-12-29T04:27:10;99176.09;;;9.92;100.00
39891;BME280;25564;53.312;9.790;2022-12-29T04:29:41;99168.91;;;9.96;100.00
39891;BME280;25564;53.312;9.790;2022-12-29T04:32:13;99161.81;;;9.96;100.00
39891;BME280;25564;53.312;9.790;2022-12-29T04:34:44;99166.81;;;10.04;100.00
39891;BME280;25564;53.312;9.790;2022-12-29T04:37:15;99151.72;;;10.06;100.00
39891;BME280;25564;53.312;9.790;2022-12-29T04:39:47;99153.31;;;10.10;100.00
39891;BME280;25564;53.312;9.790;2022-12-29T04:42:18;99136.78;;;10.03;100.00
39891;BME280;25564;53.312;9.790;2022-12-29T04:44:49;99154.84;;;10.15;100.00
39891;BME280;25564;53.312;9.790;2022-12-29T04:47:21;99141.53;;;10.17;100.00
39891;BME280;25564;53.312;9.790;2022-12-29T04:49:52;99150.28;;;10.19;100.00
39891;BME280;25564;53.312;9.790;2022-12-29T04:52:23;99151.22;;;10.18;100.00
39891;BME280;25564;53.312;9.790;2022-12-29T04:54:55;99142.47;;;10.16;100.00
39891;BME280;25564;53.312;9.790;2022-12-29T04:57:27;99121.63;;;10.07;100.00
39891;BME280;25564;53.312;9.790;2022-12-29T04:59:58;99136.13;;;10.20;100.00
39891;BME280;25564;53.312;9.790;2022-12-29T05:02:30;99134.44;;;10.18;100.00
39891;BME280;25564;53.312;9.790;2022-12-29T05:05:01;99154.56;;;10.23;100.00
39891;BME280;25564;53.312;9.790;2022-12-29T05:07:33;99144.81;;;10.24;100.00
39891;BME280;25564;53.312;9.790;2022-12-29T05:10:05;99131.72;;;10.19;100.00
39891;BME280;25564;53.312;9.790;2022-12-29T05:12:38;99141.25;;;10.25;100.00
39891;BME280;25564;53.312;9.790;2022-12-29T05:15:10;99146.50;;;10.26;100.00
39891;BME280;25564;53.312;9.790;2022-12-29T05:17:41;99144.81;;;10.24;100.00
39891;BME280;25564;53.312;9.790;2022-12-29T05:20:13;99141.13;;;10.28;100.00
39891;BME280;25564;53.312;9.790;2022-12-29T05:22:44;99125.63;;;10.17;100.00
39891;BME280;25564;53.312;9.790;2022-12-29T05:25:16;99157.91;;;10.28;100.00
39891;BME280;25564;53.312;9.790;2022-12-29T05:27:47;99143.78;;;10.28;100.00
39891;BME280;25564;53.312;9.790;2022-12-29T05:30:18;99150.75;;;10.30;100.00
39891;BME280;25564;53.312;9.790;2022-12-29T05:32:50;99149.00;;;10.29;100.00
39891;BME280;25564;53.312;9.790;2022-12-29T05:35:21;99136.81;;;10.25;100.00
39891;BME280;25564;53.312;9.790;2022-12-29T05:37:52;99159.75;;;10.26;100.00
39891;BME280;25564;53.312;9.790;2022-12-29T05:40:24;99148.22;;;10.27;100.00
39891;BME280;25564;53.312;9.790;2022-12-29T05:42:55;99136.56;;;10.31;100.00
39891;BME280;25564;53.312;9.790;2022-12-29T05:45:26;99151.41;;;10.35;100.00
39891;BME280;25564;53.312;9.790;2022-12-29T05:47:58;99148.69;;;10.37;100.00
39891;BME280;25564;53.312;9.790;2022-12-29T05:50:29;99135.75;;;10.29;100.00
39891;BME280;25564;53.312;9.790;2022-12-29T05:53:00;99146.16;;;10.34;100.00
39891;BME280;25564;53.312;9.790;2022-12-29T05:55:31;99143.31;;;10.38;100.00
39891;BME280;25564;53.312;9.790;2022-12-29T05:58:03;99153.78;;;10.41;100.00
39891;BME280;25564;53.312;9.790;2022-12-29T06:00:34;99152.91;;;10.41;100.00
39891;BME280;25564;53.312;9.790;2022-12-29T06:03:05;99135.56;;;10.34;100.00
39891;BME280;25564;53.312;9.790;2022-12-29T06:05:37;99151.00;;;10.24;100.00
39891;BME280;25564;53.312;9.790;2022-12-29T06:08:08;99117.94;;;10.11;100.00
39891;BME280;25564;53.312;9.790;2022-12-29T06:10:40;99122.81;;;10.00;100.00
39891;BME280;25564;53.312;9.790;2022-12-29T06:13:11;99137.09;;;9.96;100.00
39891;BME280;25564;53.312;9.790;2022-12-29T06:15:42;99121.44;;;9.90;100.00
39891;BME280;25564;53.312;9.790;2022-12-29T06:18:14;99136.78;;;10.03;100.00
39891;BME280;25564;53.312;9.790;2022-12-29T06:20:50;99157.13;;;10.03;100.00
39891;BME280;25564;53.312;9.790;2022-12-29T06:23:21;99160.59;;;10.05;100.00
39891;BME280;25564;53.312;9.790;2022-12-29T06:25:53;99156.50;;;9.96;100.00
39891;BME280;25564;53.312;9.790;2022-12-29T06:28:24;99170.25;;;10.06;100.00
39891;BME280;25564;53.312;9.790;2022-12-29T06:30:56;99149.72;;;9.89;100.00
39891;BME280;25564;53.312;9.790;2022-12-29T06:33:29;99142.41;;;9.96;100.00
39891;BME280;25564;53.312;9.790;2022-12-29T06:36:01;99127.63;;;9.90;100.00
39891;BME280;25564;53.312;9.790;2022-12-29T06:38:32;99122.00;;;9.98;100.00
39891;BME280;25564;53.312;9.790;2022-12-29T06:41:04;99124.72;;;9.96;100.00
39891;BME280;25564;53.312;9.790;2022-12-29T06:43:35;99139.88;;;9.93;100.00
39891;BME280;25564;53.312;9.790;2022-12-29T06:46:09;99133.72;;;9.92;100.00
39891;BME280;25564;53.312;9.790;2022-12-29T06:48:41;99129.41;;;9.90;100.00
39891;BME280;25564;53.312;9.790;2022-12-29T06:51:13;99124.03;;;9.91;100.00
39891;BME280;25564;53.312;9.790;2022-12-29T06:53:44;99126.88;;;9.87;100.00
39891;BME280;25564;53.312;9.790;2022-12-29T06:56:15;99129.34;;;9.91;100.00
39891;BME280;25564;53.312;9.790;2022-12-29T06:58:47;99129.34;;;9.91;100.00
39891;BME280;25564;53.312;9.790;2022-12-29T07:01:18;99117.31;;;9.82;100.00
39891;BME280;25564;53.312;9.790;2022-12-29T07:03:50;99132.84;;;9.92;100.00
39891;BME280;25564;53.312;9.790;2022-12-29T07:06:21;99118.97;;;9.85;100.00
39891;BME280;25564;53.312;9.790;2022-12-29T07:08:52;99142.47;;;9.94;100.00
39891;BME280;25564;53.312;9.790;2022-12-29T07:11:26;99135.50;;;9.92;100.00
39891;BME280;25564;53.312;9.790;2022-12-29T07:13:57;99127.66;;;9.89;100.00
39891;BME280;25564;53.312;9.790;2022-12-29T07:16:35;99130.38;;;9.87;100.00
39891;BME280;25564;53.312;9.790;2022-12-29T07:19:06;99144.94;;;9.99;100.00
39891;BME280;25564;53.312;9.790;2022-12-29T07:21:38;99152.88;;;9.99;100.00
39891;BME280;25564;53.312;9.790;2022-12-29T07:24:09;99139.63;;;9.99;100.00
39891;BME280;25564;53.312;9.790;2022-12-29T07:26:40;99132.47;;;10.01;100.00
39891;BME280;25564;53.312;9.790;2022-12-29T07:29:12;99120.53;;;9.91;100.00
39891;BME280;25564;53.312;9.790;2022-12-29T07:31:44;99129.41;;;9.90;100.00
39891;BME280;25564;53.312;9.790;2022-12-29T07:34:15;99144.94;;;9.99;100.00
39891;BME280;25564;53.312;9.790;2022-12-29T07:36:47;99158.25;;;9.97;100.00
39891;BME280;25564;53.312;9.790;2022-12-29T07:39:18;99171.72;;;9.91;100.00
39891;BME280;25564;53.312;9.790;2022-12-29T07:41:50;99172.72;;;9.89;100.00
39891;BME280;25564;53.312;9.790;2022-12-29T07:44:21;99155.91;;;9.90;100.00
39891;BME280;25564;53.312;9.790;2022-12-29T07:46:52;99166.19;;;9.97;100.00
39891;BME280;25564;53.312;9.790;2022-12-29T07:49:29;99180.66;;;9.89;100.00
39891;BME280;25564;53.312;9.790;2022-12-29T07:52:00;99168.81;;;9.75;100.00
39891;BME280;25564;53.312;9.790;2022-12-29T07:54:31;99189.53;;;9.88;100.00
39891;BME280;25564;53.312;9.790;2022-12-29T07:57:04;99193.06;;;9.88;100.00
39891;BME280;25564;53.312;9.790;2022-12-29T07:59:35;99195.88;;;9.83;100.00
39891;BME280;25564;53.312;9.790;2022-12-29T08:02:09;99196.16;;;9.76;100.00
39891;BME280;25564;53.312;9.790;2022-12-29T08:04:42;99199.97;;;9.69;100.00
39891;BME280;25564;53.312;9.790;2022-12-29T08:07:13;99207.97;;;9.67;100.00
39891;BME280;25564;53.312;9.790;2022-12-29T08:09:45;99196.13;;;9.54;100.00
39891;BME280;25564;53.312;9.790;2022-12-29T08:12:16;99175.78;;;9.33;100.00
39891;BME280;25564;53.312;9.790;2022-12-29T08:14:48;99205.34;;;9.44;100.00
39891;BME280;25564;53.312;9.790;2022-12-29T08:17:20;99210.25;;;9.31;100.00
39891;BME280;25564;53.312;9.790;2022-12-29T08:19:51;99225.38;;;9.28;100.00
39891;BME280;25564;53.312;9.790;2022-12-29T08:22:22;99223.75;;;9.24;100.00
39891;BME280;25564;53.312;9.790;2022-12-29T08:24:54;99223.06;;;9.18;100.00
39891;BME280;25564;53.312;9.790;2022-12-29T08:27:26;99226.56;;;9.19;100.00
39891;BME280;25564;53.312;9.790;2022-12-29T08:29:57;99231.75;;;9.22;100.00
39891;BME280;25564;53.312;9.790;2022-12-29T08:32:28;99232.41;;;9.29;100.00
39891;BME280;25564;53.312;9.790;2022-12-29T08:35:00;99239.91;;;9.39;100.00
39891;BME280;25564;53.312;9.790;2022-12-29T08:37:32;99233.44;;;9.48;100.00
39891;BME280;25564;53.312;9.790;2022-12-29T08:40:04;99224.56;;;9.49;100.00
39891;BME280;25564;53.312;9.790;2022-12-29T08:42:36;99233.53;;;9.45;100.00
39891;BME280;25564;53.312;9.790;2022-12-29T08:45:08;99220.84;;;9.31;100.00
39891;BME280;25564;53.312;9.790;2022-12-29T08:47:40;99237.81;;;9.26;100.00
39891;BME280;25564;53.312;9.790;2022-12-29T08:50:11;99242.66;;;9.13;100.00
39891;BME280;25564;53.312;9.790;2022-12-29T08:52:42;99241.81;;;9.12;100.00
39891;BME280;25564;53.312;9.790;2022-12-29T08:55:14;99245.47;;;9.08;100.00
39891;BME280;25564;53.312;9.790;2022-12-29T08:57:45;99231.84;;;8.94;100.00
39891;BME280;25564;53.312;9.790;2022-12-29T09:00:17;99241.31;;;9.01;100.00
39891;BME280;25564;53.312;9.790;2022-12-29T09:02:48;99247.53;;;9.00;100.00
39891;BME280;25564;53.312;9.790;2022-12-29T09:05:20;99246.66;;;9.00;100.00
39891;BME280;25564;53.312;9.790;2022-12-29T09:07:51;99244.06;;;8.98;100.00
39891;BME280;25564;53.312;9.790;2022-12-29T09:10:22;99252.97;;;8.96;100.00
39891;BME280;25564;53.312;9.790;2022-12-29T09:12:54;99208.09;;;8.68;100.00
39891;BME280;25564;53.312;9.790;2022-12-29T09:15:25;99250.31;;;8.96;100.00
39891;BME280;25564;53.312;9.790;2022-12-29T09:17:57;99250.47;;;8.91;100.00
39891;BME280;25564;53.312;9.790;2022-12-29T09:20:28;99267.72;;;9.03;100.00
39891;BME280;25564;53.312;9.790;2022-12-29T09:23:00;99266.66;;;9.08;100.00
39891;BME280;25564;53.312;9.790;2022-12-29T09:25:31;99253.63;;;9.02;100.00
39891;BME280;25564;53.312;9.790;2022-12-29T09:28:03;99265.63;;;9.12;100.00
39891;BME280;25564;53.312;9.790;2022-12-29T09:30:38;99280.97;;;9.28;100.00
39891;BME280;25564;53.312;9.790;2022-12-29T09:33:10;99278.72;;;9.40;100.00
39891;BME280;25564;53.312;9.790;2022-12-29T09:35:52;99262.03;;;9.38;100.00
39891;BME280;25564;53.312;9.790;2022-12-29T09:38:24;99292.03;;;9.62;100.00
39891;BME280;25564;53.312;9.790;2022-12-29T09:41:01;99291.75;;;9.70;100.00
39891;BME280;25564;53.312;9.790;2022-12-29T09:43:55;99274.16;;;9.69;100.00
39891;BME280;25564;53.312;9.790;2022-12-29T09:46:40;99285.59;;;9.69;100.00
39891;BME280;25564;53.312;9.790;2022-12-29T09:49:35;99284.00;;;9.65;100.00
39891;BME280;25564;53.312;9.790;2022-12-29T09:52:21;99287.56;;;9.64;100.00
39891;BME280;25564;53.312;9.790;2022-12-29T09:54:59;99282.16;;;9.67;100.00
39891;BME280;25564;53.312;9.790;2022-12-29T09:57:48;99277.53;;;9.72;100.00
39891;BME280;25564;53.312;9.790;2022-12-29T10:00:23;99273.53;;;9.86;100.00
39891;BME280;25564;53.312;9.790;2022-12-29T10:03:05;99296.44;;;10.10;100.00
39891;BME280;25564;53.312;9.790;2022-12-29T10:05:50;99309.25;;;10.22;100.00
39891;BME280;25564;53.312;9.790;2022-12-29T10:08:48;99292.44;;;10.23;100.00
39891;BME280;25564;53.312;9.790;2022-12-29T10:11:55;99289.97;;;10.17;100.00
39891;BME280;25564;53.312;9.790;2022-12-29T10:14:41;99278.97;;;10.04;100.00
39891;BME280;25564;53.312;9.790;2022-12-29T10:17:34;99279.28;;;9.97;100.00
39891;BME280;25564;53.312;9.790;2022-12-29T10:25:44;99251.41;;;9.87;100.00
39891;BME280;25564;53.312;9.790;2022-12-29T10:28:21;99273.81;;;10.01;100.00
39891;BME280;25564;53.312;9.790;2022-12-29T10:30:53;99261.72;;;9.94;100.00
39891;BME280;25564;53.312;9.790;2022-12-29T10:33:32;99285.72;;;10.13;100.00
39891;BME280;25564;53.312;9.790;2022-12-29T10:36:18;99273.34;;;10.13;100.00
39891;BME280;25564;53.312;9.790;2022-12-29T10:41:39;99289.78;;;10.23;100.00
39891;BME280;25564;53.312;9.790;2022-12-29T10:44:15;99274.63;;;10.27;100.00
39891;BME280;25564;53.312;9.790;2022-12-29T10:46:55;99250.94;;;10.22;100.00
39891;BME280;25564;53.312;9.790;2022-12-29T10:49:28;99271.53;;;10.14;100.00
39891;BME280;25564;53.312;9.790;2022-12-29T10:52:02;99268.56;;;10.00;100.00
39891;BME280;25564;53.312;9.790;2022-12-29T10:57:28;99273.47;;;9.87;100.00
39891;BME280;25564;53.312;9.790;2022-12-29T11:00:22;99269.72;;;9.93;100.00
39891;BME280;25564;53.312;9.790;2022-12-29T11:06:39;99280.28;;;10.16;100.00
39891;BME280;25564;53.312;9.790;2022-12-29T11:08:57;99278.13;;;10.27;100.00
39891;BME280;25564;53.312;9.790;2022-12-29T11:11:34;99289.59;;;10.28;100.00
39891;BME280;25564;53.312;9.790;2022-12-29T11:14:30;99287.00;;;10.26;100.00
39891;BME280;25564;53.312;9.790;2022-12-29T11:17:03;99287.25;;;10.19;100.00
39891;BME280;25564;53.312;9.790;2022-12-29T11:19:35;99289.34;;;10.10;100.00
39891;BME280;25564;53.312;9.790;2022-12-29T11:22:25;99288.00;;;10.24;100.00
39891;BME280;25564;53.312;9.790;2022-12-29T11:25:10;99288.72;;;10.27;100.00
39891;BME280;25564;53.312;9.790;2022-12-29T11:27:55;99291.25;;;10.30;100.00
39891;BME280;25564;53.312;9.790;2022-12-29T11:30:29;99285.16;;;10.28;100.00
39891;BME280;25564;53.312;9.790;2022-12-29T11:33:03;99256.75;;;10.08;100.00
39891;BME280;25564;53.312;9.790;2022-12-29T11:35:38;99278.81;;;10.32;100.00
39891;BME280;25564;53.312;9.790;2022-12-29T11:38:21;99282.31;;;10.33;100.00
39891;BME280;25564;53.312;9.790;2022-12-29T11:40:54;99279.72;;;10.31;100.00
39891;BME280;25564;53.312;9.790;2022-12-29T11:43:31;99273.38;;;10.35;100.00
39891;BME280;25564;53.312;9.790;2022-12-29T11:46:07;99278.34;;;10.43;100.00
39891;BME280;25564;53.312;9.790;2022-12-29T11:48:46;99285.06;;;10.52;100.00
39891;BME280;25564;53.312;9.790;2022-12-29T11:51:23;99278.72;;;10.56;100.00
39891;BME280;25564;53.312;9.790;2022-12-29T11:53:58;99274.22;;;10.58;100.00
39891;BME280;25564;53.312;9.790;2022-12-29T11:56:35;99278.72;;;10.56;100.00
39891;BME280;25564;53.312;9.790;2022-12-29T11:59:24;99286.13;;;10.69;100.00
39891;BME280;25564;53.312;9.790;2022-12-29T12:08:17;99247.13;;;10.71;100.00
39891;BME280;25564;53.312;9.790;2022-12-29T12:11:03;99253.84;;;10.80;100.00
39891;BME280;25564;53.312;9.790;2022-12-29T12:16:36;99271.72;;;10.97;100.00
39891;BME280;25564;53.312;9.790;2022-12-29T12:19:20;99286.94;;;11.13;100.00
39891;BME280;25564;53.312;9.790;2022-12-29T12:30:24;99292.28;;;10.92;100.00
39891;BME280;25564;53.312;9.790;2022-12-29T12:33:00;99288.94;;;10.87;100.00
39891;BME280;25564;53.312;9.790;2022-12-29T12:35:44;99277.72;;;10.80;100.00
39891;BME280;25564;53.312;9.790;2022-12-29T12:44:30;99272.41;;;10.80;100.00
39891;BME280;25564;53.312;9.790;2022-12-29T12:47:21;99289.06;;;10.84;100.00
39891;BME280;25564;53.312;9.790;2022-12-29T12:54:22;99290.41;;;10.94;100.00
39891;BME280;25564;53.312;9.790;2022-12-29T13:02:12;99309.66;;;10.99;100.00
39891;BME280;25564;53.312;9.790;2022-12-29T13:04:59;99299.00;;;11.00;100.00
39891;BME280;25564;53.312;9.790;2022-12-29T13:10:36;99302.69;;;10.96;100.00
39891;BME280;25564;53.312;9.790;2022-12-29T13:13:30;99320.47;;;10.94;100.00
39891;BME280;25564;53.312;9.790;2022-12-29T13:16:22;99303.75;;;10.92;100.00
39891;BME280;25564;53.312;9.790;2022-12-29T13:22:16;99307.22;;;10.94;100.00
39891;BME280;25564;53.312;9.790;2022-12-29T13:27:58;99290.56;;;10.69;100.00
39891;BME280;25564;53.312;9.790;2022-12-29T13:33:47;99326.47;;;10.77;100.00
39891;BME280;25564;53.312;9.790;2022-12-29T13:39:11;99345.91;;;10.78;100.00
39891;BME280;25564;53.312;9.790;2022-12-29T13:41:55;99354.00;;;10.75;100.00
39891;BME280;25564;53.312;9.790;2022-12-29T13:44:28;99351.53;;;10.70;100.00
39891;BME280;25564;53.312;9.790;2022-12-29T13:47:31;99338.56;;;10.63;100.00
39891;BME280;25564;53.312;9.790;2022-12-29T13:50:10;99342.69;;;10.48;100.00
39891;BME280;25564;53.312;9.790;2022-12-29T13:55:59;99371.50;;;10.57;100.00
39891;BME280;25564;53.312;9.790;2022-12-29T13:58:56;99382.13;;;10.57;100.00
39891;BME280;25564;53.312;9.790;2022-12-29T14:02:02;99396.31;;;10.56;100.00
39891;BME280;25564;53.312;9.790;2022-12-29T14:04:35;99418.50;;;10.54;100.00
39891;BME280;25564;53.312;9.790;2022-12-29T14:07:16;99400.22;;;10.46;100.00
39891;BME280;25564;53.312;9.790;2022-12-29T14:09:52;99414.69;;;10.39;100.00
39891;BME280;25564;53.312;9.790;2022-12-29T14:15:04;99422.81;;;10.34;100.00
39891;BME280;25564;53.312;9.790;2022-12-29T14:17:37;99418.69;;;10.26;100.00
39891;BME280;25564;53.312;9.790;2022-12-29T14:20:21;99429.63;;;10.16;100.00
39891;BME280;25564;53.312;9.790;2022-12-29T14:28:26;99449.09;;;9.91;100.00
39891;BME280;25564;53.312;9.790;2022-12-29T14:30:59;99451.53;;;9.97;100.00
39891;BME280;25564;53.312;9.790;2022-12-29T14:33:33;99451.69;;;9.92;100.00
39891;BME280;25564;53.312;9.790;2022-12-29T14:36:33;99473.22;;;10.08;100.00
39891;BME280;25564;53.312;9.790;2022-12-29T14:39:38;99462.50;;;10.11;100.00
39891;BME280;25564;53.312;9.790;2022-12-29T14:42:12;99482.09;;;10.07;100.00
39891;BME280;25564;53.312;9.790;2022-12-29T14:44:48;99477.00;;;10.01;100.00
39891;BME280;25564;53.312;9.790;2022-12-29T14:47:39;99490.56;;;9.92;100.00
39891;BME280;25564;53.312;9.790;2022-12-29T14:50:22;99490.03;;;9.82;100.00
39891;BME280;25564;53.312;9.790;2022-12-29T14:52:57;99483.47;;;9.67;100.00
39891;BME280;25564;53.312;9.790;2022-12-29T14:55:43;99489.53;;;9.71;100.00
39891;BME280;25564;53.312;9.790;2022-12-29T14:58:25;99509.78;;;9.72;100.00
39891;BME280;25564;53.312;9.790;2022-12-29T15:00:58;99501.91;;;9.70;100.00
39891;BME280;25564;53.312;9.790;2022-12-29T15:03:33;99507.34;;;9.66;100.00
39891;BME280;25564;53.312;9.790;2022-12-29T15:06:15;99503.16;;;9.59;100.00
39891;BME280;25564;53.312;9.790;2022-12-29T15:08:54;99507.03;;;9.48;100.00
39891;BME280;25564;53.312;9.790;2022-12-29T15:11:48;99517.88;;;9.41;100.00
39891;BME280;25564;53.312;9.790;2022-12-29T15:14:34;99518.28;;;9.29;100.00
39891;BME280;25564;53.312;9.790;2022-12-29T15:17:23;99530.09;;;9.18;100.00
39891;BME280;25564;53.312;9.790;2022-12-29T15:19:57;99524.97;;;9.12;100.00